createdAt,value
2023-12-30T00:00:25.514Z,2.00
2023-12-30T00:02:52.389Z,1.40
2023-12-30T00:05:19.556Z,3.57
2023-12-30T00:07:46.714Z,1.70
2023-12-30T00:10:14.030Z,2.37
2023-12-30T00:12:41.065Z,2.40
2023-12-30T00:15:08.707Z,2.70
2023-12-30T00:17:35.641Z,1.70
2023-12-30T00:20:02.637Z,1.50
2023-12-30T00:22:29.575Z,1.40
2023-12-30T00:24:56.460Z,2.23
2023-12-30T00:27:23.265Z,1.30
2023-12-30T00:29:51.194Z,1.40
2023-12-30T00:32:18.315Z,1.10
2023-12-30T00:34:45.242Z,1.47
2023-12-30T00:37:14.700Z,1.73
2023-12-30T00:39:42.399Z,2.50
2023-12-30T00:42:09.266Z,3.97
2023-12-30T00:44:36.174Z,2.17
2023-12-30T00:47:03.309Z,4.20
2023-12-30T00:49:30.239Z,2.00
2023-12-30T00:51:57.408Z,2.63
2023-12-30T00:54:24.598Z,2.47
2023-12-30T00:56:51.573Z,3.93
2023-12-30T00:59:18.669Z,1.43
2023-12-30T01:01:45.572Z,4.50
2023-12-30T01:04:13.924Z,2.50
2023-12-30T01:06:40.891Z,2.60
2023-12-30T01:09:07.841Z,1.70
2023-12-30T01:11:35.384Z,2.87
2023-12-30T01:14:02.220Z,4.23
2023-12-30T01:16:29.198Z,1.20
2023-12-30T01:18:56.435Z,1.73
2023-12-30T01:21:23.326Z,3.13
2023-12-30T01:23:50.128Z,2.63
2023-12-30T01:26:16.938Z,3.40
2023-12-30T01:28:43.759Z,1.67
2023-12-30T01:31:11.558Z,1.77
2023-12-30T01:33:38.701Z,1.33
2023-12-30T01:36:06.514Z,2.13
2023-12-30T01:38:33.340Z,1.23
2023-12-30T01:41:00.533Z,2.20
2023-12-30T01:43:29.430Z,1.20
2023-12-30T01:46:05.842Z,1.63
2023-12-30T01:48:33.154Z,2.43
2023-12-30T01:51:02.620Z,2.97
2023-12-30T01:53:33.950Z,1.70
2023-12-30T01:56:01.627Z,1.00
2023-12-30T01:58:29.186Z,3.57
2023-12-30T02:00:58.150Z,1.83
2023-12-30T02:03:25.350Z,1.37
2023-12-30T02:05:52.717Z,2.77
2023-12-30T02:08:20.043Z,1.77
2023-12-30T02:10:47.505Z,2.37
2023-12-30T02:13:14.393Z,1.30
2023-12-30T02:15:41.301Z,1.10
2023-12-30T02:18:08.361Z,2.00
2023-12-30T02:20:35.858Z,2.00
2023-12-30T02:23:04.673Z,3.07
2023-12-30T02:25:32.104Z,3.53
2023-12-30T02:27:59.002Z,2.40
2023-12-30T02:30:26.044Z,1.20
2023-12-30T02:32:58.460Z,3.70
2023-12-30T02:35:25.945Z,3.63
2023-12-30T02:37:53.018Z,3.50
2023-12-30T02:40:20.431Z,1.23
2023-12-30T02:42:47.427Z,1.87
2023-12-30T02:45:14.547Z,3.50
2023-12-30T02:47:41.560Z,2.87
2023-12-30T02:50:08.757Z,1.40
2023-12-30T02:52:35.569Z,3.37
2023-12-30T02:55:04.389Z,2.67
2023-12-30T02:57:32.026Z,1.30
2023-12-30T03:00:15.129Z,1.23
2023-12-30T03:02:43.184Z,1.47
2023-12-30T03:05:10.556Z,3.03
2023-12-30T03:07:38.128Z,1.73
2023-12-30T03:10:06.200Z,1.87
2023-12-30T03:12:33.131Z,2.07
2023-12-30T03:14:59.995Z,1.90
2023-12-30T03:17:26.980Z,2.00
2023-12-30T03:19:54.082Z,1.87
2023-12-30T03:22:21.618Z,2.13
2023-12-30T03:24:48.512Z,1.63
2023-12-30T03:27:15.325Z,1.50
2023-12-30T03:29:44.490Z,2.27
2023-12-30T03:32:11.673Z,1.50
2023-12-30T03:34:38.562Z,1.10
2023-12-30T03:37:05.464Z,3.13
2023-12-30T03:39:32.329Z,1.97
2023-12-30T03:41:59.160Z,2.23
2023-12-30T03:44:25.972Z,2.73
2023-12-30T03:46:52.766Z,2.03
2023-12-30T03:49:19.661Z,3.90
2023-12-30T03:51:46.548Z,7.37
2023-12-30T03:54:13.490Z,1.83
2023-12-30T03:56:41.759Z,1.60
2023-12-30T03:59:09.360Z,4.40
2023-12-30T04:01:36.285Z,3.43
2023-12-30T04:04:03.290Z,3.00
2023-12-30T04:06:30.153Z,1.73
2023-12-30T04:08:56.998Z,3.37
2023-12-30T04:11:23.900Z,2.47
2023-12-30T04:13:50.866Z,3.13
2023-12-30T04:16:17.980Z,4.63
2023-12-30T04:18:45.052Z,4.70
2023-12-30T04:21:12.547Z,2.57
2023-12-30T04:23:39.469Z,1.80
2023-12-30T04:26:06.575Z,3.40
2023-12-30T04:28:33.483Z,1.60
2023-12-30T04:31:01.360Z,2.90
2023-12-30T04:33:28.882Z,1.60
2023-12-30T04:35:55.934Z,2.37
2023-12-30T04:38:22.923Z,2.57
2023-12-30T04:40:50.316Z,3.43
2023-12-30T04:43:17.285Z,1.53
2023-12-30T04:45:44.279Z,2.67
2023-12-30T04:48:11.382Z,3.53
2023-12-30T04:50:38.299Z,2.67
2023-12-30T04:53:05.457Z,1.20
2023-12-30T04:55:32.750Z,3.10
2023-12-30T04:57:59.891Z,1.23
2023-12-30T05:00:26.922Z,3.50
2023-12-30T05:02:54.037Z,2.20
2023-12-30T05:05:21.162Z,1.97
2023-12-30T05:07:48.189Z,2.53
2023-12-30T05:10:15.128Z,4.17
2023-12-30T05:12:42.675Z,1.37
2023-12-30T05:15:14.282Z,1.33
2023-12-30T05:17:41.267Z,3.47
2023-12-30T05:20:13.512Z,2.07
2023-12-30T05:22:41.336Z,1.50
2023-12-30T05:25:08.291Z,1.53
2023-12-30T05:27:36.010Z,2.50
2023-12-30T05:30:02.909Z,2.33
2023-12-30T05:32:30.307Z,1.30
2023-12-30T05:34:57.537Z,1.97
2023-12-30T05:37:24.438Z,1.60
2023-12-30T05:39:51.337Z,5.60
2023-12-30T05:42:18.428Z,2.20
2023-12-30T05:44:45.988Z,1.20
2023-12-30T05:47:12.954Z,2.57
2023-12-30T05:49:42.011Z,2.30
2023-12-30T05:52:09.632Z,1.63
2023-12-30T05:54:37.035Z,3.53
2023-12-30T05:57:04.214Z,1.40
2023-12-30T05:59:31.187Z,1.90
2023-12-30T06:01:59.916Z,1.00
2023-12-30T06:04:27.229Z,1.73
2023-12-30T06:06:54.675Z,2.20
2023-12-30T06:09:21.687Z,2.93
2023-12-30T06:11:49.831Z,2.27
2023-12-30T06:14:16.839Z,1.63
2023-12-30T06:16:43.872Z,2.60
2023-12-30T06:19:12.193Z,3.20
2023-12-30T06:21:39.740Z,2.50
2023-12-30T06:24:06.908Z,0.80
2023-12-30T06:26:38.227Z,1.67
2023-12-30T06:29:06.691Z,1.40
2023-12-30T06:31:33.904Z,2.90
2023-12-30T06:34:01.004Z,2.63
2023-12-30T06:36:27.932Z,1.10
2023-12-30T06:38:54.881Z,1.00
2023-12-30T06:41:21.758Z,1.53
2023-12-30T06:43:48.726Z,1.10
2023-12-30T06:46:19.443Z,1.23
2023-12-30T06:48:46.585Z,2.00
2023-12-30T06:51:13.637Z,0.93
2023-12-30T06:53:40.605Z,0.83
2023-12-30T06:56:10.684Z,0.70
2023-12-30T06:58:37.932Z,2.20
2023-12-30T07:01:06.228Z,1.80
2023-12-30T07:03:33.683Z,1.83
2023-12-30T07:06:00.773Z,0.73
2023-12-30T07:08:27.794Z,0.53
2023-12-30T07:10:54.758Z,1.60
2023-12-30T07:13:21.690Z,0.83
2023-12-30T07:15:48.921Z,1.27
2023-12-30T07:18:15.919Z,2.30
2023-12-30T07:20:42.954Z,0.60
2023-12-30T07:23:09.869Z,4.57
2023-12-30T07:25:36.973Z,1.50
2023-12-30T07:28:04.300Z,2.27
2023-12-30T07:30:31.235Z,1.47
2023-12-30T07:32:58.236Z,1.07
2023-12-30T07:35:25.483Z,3.30
2023-12-30T07:37:52.424Z,0.70
2023-12-30T07:40:19.460Z,3.80
2023-12-30T07:42:46.538Z,0.50
2023-12-30T07:45:13.990Z,1.27
2023-12-30T07:47:41.023Z,0.70
2023-12-30T07:50:08.744Z,2.93
2023-12-30T07:52:36.005Z,2.57
2023-12-30T07:55:02.990Z,3.07
2023-12-30T07:57:29.895Z,5.63
2023-12-30T07:59:56.861Z,3.23
2023-12-30T08:02:23.772Z,2.47
2023-12-30T08:04:50.930Z,4.40
2023-12-30T08:07:18.129Z,3.27
2023-12-30T08:09:45.112Z,4.60
2023-12-30T08:12:13.040Z,2.60
2023-12-30T08:14:39.988Z,3.47
2023-12-30T08:17:06.889Z,1.53
2023-12-30T08:19:33.946Z,2.20
2023-12-30T08:22:00.892Z,2.30
2023-12-30T08:24:29.807Z,1.63
2023-12-30T08:26:56.901Z,1.60
2023-12-30T08:29:23.957Z,3.67
2023-12-30T08:31:50.988Z,1.93
2023-12-30T08:34:18.337Z,6.37
2023-12-30T08:36:46.089Z,5.97
2023-12-30T08:39:13.482Z,9.43
2023-12-30T08:41:41.784Z,5.77
2023-12-30T08:44:08.840Z,1.13
2023-12-30T08:46:36.413Z,3.90
2023-12-30T08:49:06.501Z,9.23
2023-12-30T08:51:35.902Z,3.40
2023-12-30T08:54:02.945Z,2.30
2023-12-30T08:56:34.636Z,6.87
2023-12-30T08:59:02.077Z,4.27
2023-12-30T09:01:29.446Z,2.63
2023-12-30T09:03:56.763Z,2.03
2023-12-30T09:06:23.883Z,2.97
2023-12-30T09:08:50.957Z,3.27
2023-12-30T09:11:22.094Z,2.13
2023-12-30T09:13:50.397Z,4.40
2023-12-30T09:16:17.427Z,3.50
2023-12-30T09:18:44.841Z,3.77
2023-12-30T09:21:12.382Z,3.20
2023-12-30T09:23:39.369Z,2.20
2023-12-30T09:26:06.374Z,5.07
2023-12-30T09:28:34.714Z,4.77
2023-12-30T09:31:02.762Z,2.03
2023-12-30T09:33:30.073Z,2.53
2023-12-30T09:35:57.321Z,2.63
2023-12-30T09:38:25.910Z,4.53
2023-12-30T09:40:55.245Z,3.63
2023-12-30T09:43:27.129Z,5.30
2023-12-30T09:45:55.791Z,2.90
2023-12-30T09:48:29.064Z,2.13
2023-12-30T09:50:57.967Z,1.47
2023-12-30T09:53:26.170Z,1.03
2023-12-30T09:55:54.477Z,2.40
2023-12-30T09:58:23.385Z,1.30
2023-12-30T10:00:50.834Z,1.40
2023-12-30T10:03:19.741Z,2.17
2023-12-30T10:05:47.143Z,1.13
2023-12-30T10:08:16.088Z,1.93
2023-12-30T10:10:47.606Z,1.57
2023-12-30T10:13:18.629Z,1.87
2023-12-30T10:15:45.714Z,2.90
2023-12-30T10:18:14.962Z,1.67
2023-12-30T10:20:46.682Z,2.37
2023-12-30T10:23:14.560Z,2.67
2023-12-30T10:25:42.580Z,1.73
2023-12-30T10:28:10.300Z,3.23
2023-12-30T10:30:37.893Z,0.93
2023-12-30T10:33:10.448Z,1.20
2023-12-30T10:35:43.088Z,1.43
2023-12-30T10:38:11.218Z,2.10
2023-12-30T10:40:39.548Z,2.03
2023-12-30T10:43:07.662Z,1.40
2023-12-30T10:45:34.919Z,1.70
2023-12-30T10:48:02.864Z,1.80
2023-12-30T10:50:30.316Z,3.07
2023-12-30T10:53:08.444Z,1.43
2023-12-30T10:55:37.376Z,1.67
2023-12-30T10:58:17.545Z,1.60
2023-12-30T11:00:46.384Z,2.30
2023-12-30T11:03:13.678Z,3.63
2023-12-30T11:05:49.801Z,3.40
2023-12-30T11:08:19.066Z,3.00
2023-12-30T11:10:46.574Z,4.33
2023-12-30T11:13:13.586Z,1.10
2023-12-30T11:15:41.296Z,1.43
2023-12-30T11:18:13.873Z,1.30
2023-12-30T11:20:48.409Z,0.70
2023-12-30T11:23:17.221Z,1.60
2023-12-30T11:25:46.822Z,1.13
2023-12-30T11:28:18.465Z,0.93
2023-12-30T11:30:47.349Z,3.13
2023-12-30T11:33:17.232Z,3.37
2023-12-30T11:35:44.256Z,0.77
2023-12-30T11:38:13.428Z,2.20
2023-12-30T11:40:50.403Z,0.90
2023-12-30T11:43:18.054Z,1.20
2023-12-30T11:45:45.010Z,3.20
2023-12-30T11:48:12.036Z,1.60
2023-12-30T11:50:38.968Z,2.93
2023-12-30T11:53:06.166Z,1.00
2023-12-30T11:55:33.183Z,1.47
2023-12-30T11:58:00.288Z,0.70
2023-12-30T12:00:27.976Z,0.80
2023-12-30T12:02:57.142Z,1.33
2023-12-30T12:05:24.317Z,1.73
2023-12-30T12:07:51.254Z,1.13
2023-12-30T12:10:18.296Z,1.33
2023-12-30T12:12:46.971Z,2.87
2023-12-30T12:15:14.594Z,1.17
2023-12-30T12:17:41.860Z,1.87
2023-12-30T12:20:12.159Z,1.43
2023-12-30T12:22:40.098Z,1.83
2023-12-30T12:25:07.881Z,2.37
2023-12-30T12:27:34.994Z,1.20
2023-12-30T12:30:02.479Z,2.27
2023-12-30T12:32:31.172Z,1.00
2023-12-30T12:34:59.871Z,4.93
2023-12-30T12:37:26.939Z,3.13
2023-12-30T12:39:54.277Z,1.03
2023-12-30T12:42:27.727Z,1.40
2023-12-30T12:44:57.976Z,2.83
2023-12-30T12:47:25.329Z,2.40
2023-12-30T12:49:52.518Z,3.83
2023-12-30T12:52:19.571Z,3.53
2023-12-30T12:54:46.468Z,3.57
2023-12-30T12:57:13.508Z,2.93
2023-12-30T12:59:40.925Z,1.27
2023-12-30T13:02:10.042Z,1.87
2023-12-30T13:04:37.478Z,1.13
2023-12-30T13:07:07.157Z,0.90
2023-12-30T13:09:34.471Z,2.30
2023-12-30T13:12:02.823Z,0.90
2023-12-30T13:14:29.800Z,0.83
2023-12-30T13:16:56.971Z,0.60
2023-12-30T13:19:24.156Z,0.90
2023-12-30T13:21:51.934Z,2.83
2023-12-30T13:24:19.015Z,2.10
2023-12-30T13:26:46.353Z,3.30
2023-12-30T13:29:13.800Z,2.37
2023-12-30T13:31:40.894Z,1.97
2023-12-30T13:34:08.429Z,1.70
2023-12-30T13:36:36.450Z,1.63
2023-12-30T13:39:07.526Z,4.63
2023-12-30T13:41:37.131Z,4.00
2023-12-30T13:44:15.791Z,0.70
2023-12-30T13:46:43.805Z,0.83
2023-12-30T13:49:10.943Z,1.63
2023-12-30T13:51:39.174Z,1.63
2023-12-30T13:54:06.061Z,1.33
2023-12-30T13:56:36.949Z,1.37
2023-12-30T13:59:09.588Z,1.87
2023-12-30T14:01:40.349Z,1.73
2023-12-30T14:04:08.884Z,0.83
2023-12-30T14:06:40.780Z,1.10
2023-12-30T14:09:24.698Z,3.63
2023-12-30T14:12:03.776Z,0.60
2023-12-30T14:14:40.908Z,1.03
2023-12-30T14:17:08.356Z,1.00
2023-12-30T14:19:35.393Z,1.33
2023-12-30T14:22:06.045Z,0.40
2023-12-30T14:24:32.990Z,1.40
2023-12-30T14:27:01.052Z,1.47
2023-12-30T14:29:28.617Z,1.67
2023-12-30T14:31:55.550Z,5.83
2023-12-30T14:34:22.631Z,3.33
2023-12-30T14:36:49.724Z,3.13
2023-12-30T14:39:17.031Z,2.77
2023-12-30T14:41:44.017Z,2.70
2023-12-30T14:44:10.897Z,1.90
2023-12-30T14:46:37.816Z,1.50
2023-12-30T14:49:04.861Z,1.30
2023-12-30T14:51:33.146Z,0.70
2023-12-30T14:54:00.123Z,1.50
2023-12-30T14:56:28.850Z,1.50
2023-12-30T14:58:55.961Z,1.13
2023-12-30T15:01:23.321Z,1.47
2023-12-30T15:03:51.191Z,0.93
2023-12-30T15:06:19.646Z,0.90
2023-12-30T15:08:46.774Z,0.73
2023-12-30T15:11:14.081Z,0.33
2023-12-30T15:13:41.068Z,0.83
2023-12-30T15:16:09.114Z,0.80
2023-12-30T15:18:36.077Z,0.47
2023-12-30T15:21:03.045Z,1.13
2023-12-30T15:23:30.068Z,0.67
2023-12-30T15:25:57.234Z,1.30
2023-12-30T15:28:26.030Z,0.50
2023-12-30T15:30:53.005Z,1.27
2023-12-30T15:33:20.210Z,0.40
2023-12-30T15:35:47.393Z,0.67
2023-12-30T15:38:14.936Z,0.90
2023-12-30T15:40:44.761Z,0.70
2023-12-30T15:43:12.389Z,3.67
2023-12-30T15:45:39.686Z,1.30
2023-12-30T15:48:06.853Z,0.87
2023-12-30T15:50:34.615Z,0.63
2023-12-30T15:53:02.050Z,0.93
2023-12-30T15:55:29.131Z,1.33
2023-12-30T15:57:56.168Z,0.90
2023-12-30T16:00:23.146Z,1.13
2023-12-30T16:02:50.271Z,7.30
2023-12-30T16:05:17.693Z,20.50
2023-12-30T16:07:44.715Z,12.50
2023-12-30T16:10:12.193Z,14.00
2023-12-30T16:12:39.215Z,11.33
2023-12-30T16:15:06.886Z,8.93
2023-12-30T16:17:33.839Z,5.63
2023-12-30T16:20:01.621Z,6.10
2023-12-30T16:22:28.565Z,5.70
2023-12-30T16:24:55.596Z,3.67
2023-12-30T16:27:22.889Z,3.87
2023-12-30T16:29:50.597Z,4.90
2023-12-30T16:32:17.595Z,6.83
2023-12-30T16:34:44.602Z,4.33
2023-12-30T16:37:11.660Z,4.67
2023-12-30T16:39:40.470Z,4.23
2023-12-30T16:42:08.572Z,4.10
2023-12-30T16:44:35.468Z,4.37
2023-12-30T16:47:03.203Z,3.10
2023-12-30T16:49:30.123Z,3.33
2023-12-30T16:51:57.842Z,2.60
2023-12-30T16:54:24.950Z,3.63
2023-12-30T16:56:53.330Z,2.60
2023-12-30T16:59:20.310Z,3.43
2023-12-30T17:01:47.315Z,2.83
2023-12-30T17:04:14.305Z,3.00
2023-12-30T17:06:41.363Z,3.40
2023-12-30T17:09:08.346Z,4.20
2023-12-30T17:11:40.696Z,4.27
2023-12-30T17:14:10.892Z,3.43
2023-12-30T17:16:38.250Z,4.13
2023-12-30T17:19:05.179Z,5.77
2023-12-30T17:21:32.719Z,5.53
2023-12-30T17:23:59.954Z,4.40
2023-12-30T17:26:26.836Z,4.80
2023-12-30T17:28:54.328Z,4.37
2023-12-30T17:31:21.547Z,3.57
2023-12-30T17:33:48.595Z,4.17
2023-12-30T17:36:17.542Z,7.30
2023-12-30T17:38:44.464Z,3.67
2023-12-30T17:41:12.025Z,5.27
2023-12-30T17:43:39.187Z,3.30
2023-12-30T17:46:06.183Z,4.33
2023-12-30T17:48:33.308Z,3.40
2023-12-30T17:51:00.238Z,5.73
2023-12-30T17:53:28.712Z,5.57
2023-12-30T17:55:55.595Z,5.53
2023-12-30T17:58:22.699Z,3.73
2023-12-30T18:00:49.909Z,4.70
2023-12-30T18:03:17.271Z,3.97
2023-12-30T18:05:44.337Z,3.23
2023-12-30T18:08:12.031Z,7.07
2023-12-30T18:10:38.979Z,3.40
2023-12-30T18:13:06.162Z,5.47
2023-12-30T18:15:33.390Z,3.33
2023-12-30T18:18:00.399Z,2.60
2023-12-30T18:20:29.143Z,3.77
2023-12-30T18:22:56.101Z,3.47
2023-12-30T18:25:23.139Z,3.90
2023-12-30T18:27:50.174Z,2.97
2023-12-30T18:30:17.270Z,2.97
2023-12-30T18:32:44.284Z,3.90
2023-12-30T18:35:11.440Z,3.63
2023-12-30T18:37:38.510Z,5.80
2023-12-30T18:40:08.372Z,3.60
2023-12-30T18:42:35.347Z,3.40
2023-12-30T18:45:02.341Z,3.63
2023-12-30T18:47:29.434Z,3.63
2023-12-30T18:49:56.382Z,2.47
2023-12-30T18:52:23.316Z,2.17
2023-12-30T18:54:50.251Z,3.13
2023-12-30T18:57:17.655Z,1.93
2023-12-30T18:59:44.559Z,2.30
2023-12-30T19:02:12.939Z,1.73
2023-12-30T19:04:43.856Z,1.70
2023-12-30T19:07:11.130Z,1.43
2023-12-30T19:09:38.081Z,1.20
2023-12-30T19:12:05.300Z,1.70
2023-12-30T19:14:32.318Z,1.50
2023-12-30T19:16:59.659Z,2.17
2023-12-30T19:19:26.548Z,1.57
2023-12-30T19:21:53.526Z,4.07
2023-12-30T19:24:20.562Z,2.20
2023-12-30T19:26:47.489Z,2.10
2023-12-30T19:29:14.381Z,2.17
2023-12-30T19:31:41.317Z,2.50
2023-12-30T19:34:08.290Z,2.30
2023-12-30T19:36:36.487Z,2.63
2023-12-30T19:39:05.588Z,1.90
2023-12-30T19:41:38.704Z,1.57
2023-12-30T19:44:07.235Z,2.60
2023-12-30T19:46:34.256Z,2.47
2023-12-30T19:49:01.310Z,2.17
2023-12-30T19:51:28.382Z,3.67
2023-12-30T19:53:56.003Z,3.00
2023-12-30T19:56:24.625Z,3.10
2023-12-30T19:58:52.310Z,7.13
2023-12-30T20:01:22.186Z,5.20
2023-12-30T20:03:49.250Z,3.30
2023-12-30T20:06:17.099Z,4.97
2023-12-30T20:08:44.373Z,3.57
2023-12-30T20:11:11.353Z,3.27
2023-12-30T20:13:41.852Z,3.30
2023-12-30T20:16:08.935Z,4.70
2023-12-30T20:18:36.504Z,2.83
2023-12-30T20:21:04.671Z,3.60
2023-12-30T20:23:35.445Z,5.87
2023-12-30T20:26:03.174Z,7.00
2023-12-30T20:28:30.574Z,3.60
2023-12-30T20:30:57.522Z,4.43
2023-12-30T20:33:24.670Z,4.57
2023-12-30T20:35:51.756Z,4.03
2023-12-30T20:38:19.204Z,5.77
2023-12-30T20:40:47.117Z,4.07
2023-12-30T20:43:14.355Z,3.73
2023-12-30T20:45:44.543Z,3.87
2023-12-30T20:48:11.687Z,2.80
2023-12-30T20:50:38.840Z,2.67
2023-12-30T20:53:07.621Z,3.20
2023-12-30T20:55:34.540Z,3.27
2023-12-30T20:58:01.495Z,5.77
2023-12-30T21:00:28.387Z,4.27
2023-12-30T21:02:55.282Z,3.10
2023-12-30T21:05:22.324Z,4.83
2023-12-30T21:07:49.259Z,3.27
2023-12-30T21:10:16.393Z,4.73
2023-12-30T21:12:43.313Z,3.20
2023-12-30T21:15:10.865Z,3.57
2023-12-30T21:17:38.881Z,5.57
2023-12-30T21:20:07.886Z,7.47
2023-12-30T21:22:34.925Z,6.93
2023-12-30T21:25:11.840Z,5.73
2023-12-30T21:27:46.138Z,5.50
2023-12-30T21:30:14.119Z,5.83
2023-12-30T21:32:41.089Z,7.07
2023-12-30T21:35:08.998Z,5.80
2023-12-30T21:37:41.948Z,5.10
2023-12-30T21:40:15.448Z,5.13
2023-12-30T21:42:42.422Z,4.33
2023-12-30T21:45:11.079Z,3.63
2023-12-30T21:47:38.125Z,3.83
2023-12-30T21:50:05.722Z,3.70
2023-12-30T21:52:34.210Z,5.27
2023-12-30T21:55:02.619Z,4.53
2023-12-30T21:57:29.564Z,3.17
2023-12-30T21:59:56.492Z,7.00
2023-12-30T22:02:23.340Z,4.37
2023-12-30T22:04:50.362Z,5.63
2023-12-30T22:07:17.461Z,4.83
2023-12-30T22:09:44.405Z,6.43
2023-12-30T22:12:11.440Z,4.70
2023-12-30T22:14:39.527Z,4.00
2023-12-30T22:17:09.335Z,3.33
2023-12-30T22:19:37.853Z,5.47
2023-12-30T22:22:05.297Z,5.73
2023-12-30T22:24:32.195Z,4.13
2023-12-30T22:26:59.074Z,7.03
2023-12-30T22:29:26.026Z,4.00
2023-12-30T22:31:52.992Z,4.13
2023-12-30T22:34:20.230Z,4.70
2023-12-30T22:36:47.174Z,3.63
2023-12-30T22:39:14.141Z,6.33
2023-12-30T22:41:41.121Z,4.50
2023-12-30T22:44:08.019Z,5.93
2023-12-30T22:46:37.306Z,4.03
2023-12-30T22:49:04.387Z,3.87
2023-12-30T22:51:31.370Z,3.67
2023-12-30T22:53:58.442Z,5.73
2023-12-30T22:56:25.735Z,3.33
2023-12-30T22:58:52.703Z,4.43
2023-12-30T23:01:19.787Z,9.57
2023-12-30T23:03:46.760Z,5.93
2023-12-30T23:06:13.662Z,5.23
2023-12-30T23:08:40.558Z,4.47
2023-12-30T23:11:08.127Z,5.93
2023-12-30T23:13:35.115Z,6.07
2023-12-30T23:16:02.180Z,7.27
2023-12-30T23:18:29.160Z,7.17
2023-12-30T23:20:56.082Z,7.43
2023-12-30T23:23:23.125Z,6.00
2023-12-30T23:25:50.015Z,6.00
2023-12-30T23:28:17.061Z,8.20
2023-12-30T23:30:44.100Z,8.50
2023-12-30T23:33:11.152Z,6.57
2023-12-30T23:35:38.178Z,6.57
2023-12-30T23:38:05.481Z,6.87
2023-12-30T23:40:32.379Z,6.03
2023-12-30T23:42:59.518Z,5.30
2023-12-30T23:45:26.697Z,4.67
2023-12-30T23:47:53.759Z,6.27
2023-12-30T23:50:20.828Z,7.43
2023-12-30T23:52:47.852Z,7.00
2023-12-30T23:55:14.860Z,8.73
2023-12-30T23:57:41.812Z,6.67
